Time;durP1;ratioP1;P1;durP2;ratioP2;P2;SDS_P1;SDS_P2;PMS_P1;PMS_P2;Temp;Humidity;BMP_temperature;BMP_pressure;BME280_temperature;BME280_humidity;BME280_pressure;Samples;Min_cycle;Max_cycle;Signal;HPM_P1;HPM_P2
2022/10/11 00:00:29;;;;;;;;;;;14.10;99.90;;;;;;5053340;28;20292;-75
2022/10/11 00:02:55;;;;;;;;;;;14.10;99.90;;;;;;5053305;28;20285;-75
2022/10/11 00:05:21;;;;;;;;;;;14.10;99.90;;;;;;5053690;28;20014;-73
2022/10/11 00:07:46;;;;;;;;;;;14.10;99.90;;;;;;5053402;28;19916;-77
2022/10/11 00:10:12;;;;;;;;;;;14.00;99.90;;;;;;5053394;28;19996;-74
2022/10/11 00:12:37;;;;;;;;;;;14.00;99.90;;;;;;5053193;28;20270;-77
2022/10/11 00:15:04;;;;;;;;;;;14.00;99.90;;;;;;5053627;28;19913;-76
2022/10/11 00:17:30;;;;;;;;;;;13.90;99.90;;;;;;5053122;28;20339;-74
2022/10/11 00:19:56;;;;;;;;;;;13.90;99.90;;;;;;5051891;28;19916;-75
2022/10/11 00:22:21;;;;;;;;;;;13.80;99.90;;;;;;5053182;28;19909;-77
2022/10/11 00:24:47;;;;;;;;;;;13.80;99.90;;;;;;5053125;28;20027;-74
2022/10/11 00:27:12;;;;;;;;;;;13.80;99.90;;;;;;5053088;28;20396;-75
2022/10/11 00:29:38;;;;;;;;;;;13.80;99.90;;;;;;5053318;28;19909;-76
2022/10/11 00:32:04;;;;;;;;;;;13.70;99.90;;;;;;5052985;28;20347;-76
2022/10/11 00:34:30;;;;;;;;;;;13.60;99.90;;;;;;5053096;28;19995;-75
2022/10/11 00:36:55;;;;;;;;;;;13.50;99.90;;;;;;5054672;28;20012;-73
2022/10/11 00:39:21;;;;;;;;;;;13.50;99.90;;;;;;5057165;28;19948;-75
2022/10/11 00:41:48;;;;;;;;;;;13.50;99.90;;;;;;5056705;28;19916;-74
2022/10/11 00:44:15;;;;;;;;;;;13.50;99.90;;;;;;5056678;28;19919;-76
2022/10/11 00:46:48;;;;;;;;;;;13.40;99.90;;;;;;5056797;28;19909;-76
2022/10/11 00:49:18;;;;;;;;;;;13.20;99.90;;;;;;5056383;28;19925;-76
2022/10/11 00:51:49;;;;;;;;;;;13.20;99.90;;;;;;5057019;28;20023;-75
2022/10/11 00:54:17;;;;;;;;;;;13.20;99.90;;;;;;5056583;28;19916;-75
2022/10/11 00:56:45;;;;;;;;;;;13.20;99.90;;;;;;5056488;28;19916;-74
2022/10/11 00:59:16;;;;;;;;;;;13.30;99.90;;;;;;5056370;28;20332;-77
2022/10/11 01:01:41;;;;;;;;;;;13.20;99.90;;;;;;5055857;28;20293;-76
2022/10/11 01:04:07;;;;;;;;;;;13.20;99.90;;;;;;5056301;28;19909;-74
2022/10/11 01:06:33;;;;;;;;;;;13.10;99.90;;;;;;5056289;28;19909;-74
2022/10/11 01:08:59;;;;;;;;;;;13.00;99.90;;;;;;5056232;28;19909;-73
2022/10/11 01:11:26;;;;;;;;;;;12.90;99.90;;;;;;5056153;28;19915;-76
2022/10/11 01:14:02;;;;;;;;;;;13.00;99.90;;;;;;5056110;28;19908;-76
2022/10/11 01:16:40;;;;;;;;;;;12.90;99.90;;;;;;5056482;28;19909;-77
2022/10/11 01:19:41;;;;;;;;;;;12.90;99.90;;;;;;5056085;28;19909;-75
2022/10/11 01:22:25;;;;;;;;;;;13.00;99.90;;;;;;4975815;28;19910;-76
2022/10/11 01:24:56;;;;;;;;;;;12.90;99.90;;;;;;5048892;28;19909;-76
2022/10/11 01:27:33;;;;;;;;;;;12.80;99.90;;;;;;5055897;28;19940;-73
2022/10/11 01:30:17;;;;;;;;;;;12.80;99.90;;;;;;5056345;28;20312;-74
2022/10/11 01:33:01;;;;;;;;;;;12.70;99.90;;;;;;5055765;28;20000;-75
2022/10/11 01:35:26;;;;;;;;;;;12.70;99.90;;;;;;5054407;28;19909;-73
2022/10/11 01:38:12;;;;;;;;;;;12.70;99.90;;;;;;5055857;28;19936;-77
2022/10/11 01:40:41;;;;;;;;;;;12.40;99.90;;;;;;5055300;28;19908;-75
2022/10/11 01:43:07;;;;;;;;;;;12.40;99.90;;;;;;5054286;28;19908;-73
2022/10/11 01:45:33;;;;;;;;;;;12.50;99.90;;;;;;5055471;28;20293;-77
2022/10/11 01:48:03;;;;;;;;;;;12.50;99.90;;;;;;5053903;28;19913;-74
2022/10/11 01:50:33;;;;;;;;;;;12.50;99.90;;;;;;5055633;28;19959;-74
2022/10/11 01:53:03;;;;;;;;;;;12.50;99.90;;;;;;5056145;28;19916;-75
2022/10/11 01:55:33;;;;;;;;;;;12.30;99.90;;;;;;5055380;28;19909;-75
2022/10/11 01:58:08;;;;;;;;;;;12.30;99.90;;;;;;5055685;28;19959;-75
2022/10/11 02:00:48;;;;;;;;;;;12.40;99.90;;;;;;5055391;28;19913;-75
2022/10/11 02:03:37;;;;;;;;;;;12.30;99.90;;;;;;5055267;28;19955;-75
2022/10/11 02:06:09;;;;;;;;;;;12.30;99.90;;;;;;5044318;28;19909;-74
2022/10/11 02:08:34;;;;;;;;;;;12.40;99.90;;;;;;5055209;28;19909;-77
2022/10/11 02:11:00;;;;;;;;;;;12.30;99.90;;;;;;5055075;28;20387;-74
2022/10/11 02:13:30;;;;;;;;;;;12.40;99.90;;;;;;5053667;28;19912;-75
2022/10/11 02:15:57;;;;;;;;;;;12.30;99.90;;;;;;5054913;28;19909;-74
2022/10/11 02:18:24;;;;;;;;;;;12.30;99.90;;;;;;5054860;28;19920;-75
2022/10/11 02:20:50;;;;;;;;;;;12.40;99.90;;;;;;5055202;28;19922;-76
2022/10/11 02:23:19;;;;;;;;;;;12.20;99.90;;;;;;5054816;28;19916;-76
2022/10/11 02:25:45;;;;;;;;;;;12.20;99.90;;;;;;5054769;28;20281;-75
2022/10/11 02:28:14;;;;;;;;;;;12.20;99.90;;;;;;5054744;28;19916;-76
2022/10/11 02:30:40;;;;;;;;;;;12.20;99.90;;;;;;5054693;28;19909;-77
2022/10/11 02:33:08;;;;;;;;;;;12.10;99.90;;;;;;5054909;28;20015;-75
2022/10/11 02:35:37;;;;;;;;;;;12.00;99.90;;;;;;5053320;28;19913;-74
2022/10/11 02:38:12;;;;;;;;;;;12.00;99.90;;;;;;5054458;28;19913;-75
2022/10/11 02:40:40;;;;;;;;;;;12.00;99.90;;;;;;5054445;28;20008;-77
2022/10/11 02:43:22;;;;;;;;;;;12.10;99.90;;;;;;5054454;28;19909;-76
2022/10/11 02:45:56;;;;;;;;;;;12.10;99.90;;;;;;5054485;28;19939;-78
2022/10/11 02:48:23;;;;;;;;;;;12.10;99.90;;;;;;5054199;28;19923;-76
2022/10/11 02:50:49;;;;;;;;;;;12.10;99.90;;;;;;5053010;28;19951;-76
2022/10/11 02:53:15;;;;;;;;;;;12.10;99.90;;;;;;5054777;28;19932;-76
2022/10/11 02:55:40;;;;;;;;;;;12.10;99.90;;;;;;5054191;28;19909;-75
2022/10/11 02:58:06;;;;;;;;;;;12.10;99.90;;;;;;5054090;28;20365;-77
2022/10/11 03:00:31;;;;;;;;;;;12.10;99.90;;;;;;5053552;28;19916;-75
2022/10/11 03:02:57;;;;;;;;;;;12.10;99.90;;;;;;5054083;28;19909;-75
2022/10/11 03:05:22;;;;;;;;;;;12.10;99.90;;;;;;5054006;28;19962;-73
2022/10/11 03:07:48;;;;;;;;;;;12.10;99.90;;;;;;5053060;28;19931;-75
2022/10/11 03:10:13;;;;;;;;;;;12.10;99.90;;;;;;5054111;28;19921;-77
2022/10/11 03:12:39;;;;;;;;;;;12.10;99.90;;;;;;5052616;28;19909;-74
2022/10/11 03:15:05;;;;;;;;;;;12.00;99.90;;;;;;5053874;28;19923;-73
2022/10/11 03:17:30;;;;;;;;;;;12.00;99.90;;;;;;5053791;28;19960;-75
2022/10/11 03:19:56;;;;;;;;;;;12.00;99.90;;;;;;5053811;28;19909;-76
2022/10/11 03:22:22;;;;;;;;;;;12.00;99.90;;;;;;5069133;28;20336;-72
2022/10/11 03:24:47;;;;;;;;;;;11.90;99.90;;;;;;5054140;28;19939;-73
2022/10/11 03:27:13;;;;;;;;;;;11.90;99.90;;;;;;5053972;28;19916;-76
2022/10/11 03:29:38;;;;;;;;;;;11.90;99.90;;;;;;5053873;28;19963;-77
2022/10/11 03:32:04;;;;;;;;;;;11.90;99.90;;;;;;5053647;28;19919;-75
2022/10/11 03:34:30;;;;;;;;;;;11.80;99.90;;;;;;5053601;28;19909;-77
2022/10/11 03:36:55;;;;;;;;;;;11.80;99.90;;;;;;5053511;28;19920;-76
2022/10/11 03:39:21;;;;;;;;;;;11.70;99.90;;;;;;5053879;28;20422;-75
2022/10/11 03:41:47;;;;;;;;;;;11.70;99.90;;;;;;5053684;28;19916;-76
2022/10/11 03:44:12;;;;;;;;;;;11.70;99.90;;;;;;5053598;28;19915;-74
2022/10/11 03:46:38;;;;;;;;;;;11.70;99.90;;;;;;5053944;28;19917;-75
2022/10/11 03:49:03;;;;;;;;;;;11.70;99.90;;;;;;5053526;28;20011;-75
2022/10/11 03:51:30;;;;;;;;;;;11.70;99.90;;;;;;5054006;28;19909;-75
2022/10/11 03:53:56;;;;;;;;;;;11.70;99.90;;;;;;5053425;28;19948;-75
2022/10/11 03:56:21;;;;;;;;;;;11.60;99.90;;;;;;5053354;28;19951;-74
2022/10/11 03:58:47;;;;;;;;;;;11.70;99.90;;;;;;5053278;28;19912;-74
2022/10/11 04:01:12;;;;;;;;;;;11.70;99.90;;;;;;5053511;28;20321;-74
2022/10/11 04:03:38;;;;;;;;;;;11.70;99.90;;;;;;5053307;28;19909;-74
2022/10/11 04:06:04;;;;;;;;;;;11.70;99.90;;;;;;5053223;28;20016;-75
2022/10/11 04:08:29;;;;;;;;;;;11.70;99.90;;;;;;5053322;28;19908;-76
2022/10/11 04:10:55;;;;;;;;;;;11.70;99.90;;;;;;5053002;28;20332;-74
2022/10/11 04:13:21;;;;;;;;;;;11.70;99.90;;;;;;5075548;28;19999;-76
2022/10/11 04:15:46;;;;;;;;;;;11.80;99.90;;;;;;5075022;28;20314;-75
2022/10/11 04:18:12;;;;;;;;;;;11.80;99.90;;;;;;5075496;28;19913;-77
2022/10/11 04:20:37;;;;;;;;;;;11.80;99.90;;;;;;5075345;28;20022;-76
2022/10/11 04:23:03;;;;;;;;;;;11.70;99.90;;;;;;5074109;28;19927;-77
2022/10/11 04:25:29;;;;;;;;;;;11.70;99.90;;;;;;5075712;28;20290;-75
2022/10/11 04:27:54;;;;;;;;;;;11.70;99.90;;;;;;5076347;28;19958;-74
2022/10/11 04:30:20;;;;;;;;;;;11.70;99.90;;;;;;5075515;28;19909;-74
2022/10/11 04:32:46;;;;;;;;;;;11.60;99.90;;;;;;5076889;28;20336;-74
2022/10/11 04:35:12;;;;;;;;;;;11.50;99.90;;;;;;5076859;28;19909;-75
2022/10/11 04:37:37;;;;;;;;;;;11.30;99.90;;;;;;5076754;28;19913;-77
2022/10/11 04:40:04;;;;;;;;;;;11.30;99.90;;;;;;5076741;28;20287;-77
2022/10/11 04:42:29;;;;;;;;;;;11.30;99.90;;;;;;5076691;28;19958;-74
2022/10/11 04:44:55;;;;;;;;;;;11.40;99.90;;;;;;5076622;28;19908;-76
2022/10/11 04:47:20;;;;;;;;;;;11.30;99.90;;;;;;5077002;28;19909;-75
2022/10/11 04:49:46;;;;;;;;;;;11.30;99.90;;;;;;5076481;28;20007;-75
2022/10/11 04:52:12;;;;;;;;;;;11.10;99.90;;;;;;5077119;28;19909;-74
2022/10/11 04:54:37;;;;;;;;;;;11.10;99.90;;;;;;5076516;28;19958;-75
2022/10/11 04:57:03;;;;;;;;;;;11.20;99.90;;;;;;5075837;28;20361;-77
2022/10/11 04:59:28;;;;;;;;;;;11.10;99.90;;;;;;5075620;28;20007;-75
2022/10/11 05:01:54;;;;;;;;;;;11.20;99.90;;;;;;5075619;28;19912;-77
2022/10/11 05:04:19;;;;;;;;;;;11.30;99.90;;;;;;5076325;28;20316;-74
2022/10/11 05:06:45;;;;;;;;;;;11.40;99.90;;;;;;5076477;28;19908;-74
2022/10/11 05:09:11;;;;;;;;;;;11.40;99.90;;;;;;5076232;28;20419;-77
2022/10/11 05:11:36;;;;;;;;;;;11.40;99.90;;;;;;5076196;28;20007;-76
2022/10/11 05:14:02;;;;;;;;;;;11.40;99.90;;;;;;5076263;28;20369;-76
2022/10/11 05:16:28;;;;;;;;;;;11.30;99.90;;;;;;5076310;28;20010;-75
2022/10/11 05:18:53;;;;;;;;;;;11.50;99.90;;;;;;5076012;28;19923;-77
2022/10/11 05:21:19;;;;;;;;;;;11.50;99.90;;;;;;5076031;28;19908;-76
2022/10/11 05:23:45;;;;;;;;;;;11.40;99.90;;;;;;5075605;28;19913;-76
2022/10/11 05:26:10;;;;;;;;;;;11.40;99.90;;;;;;5075938;28;19947;-75
2022/10/11 05:28:36;;;;;;;;;;;11.30;99.90;;;;;;5075930;28;20345;-76
2022/10/11 05:31:02;;;;;;;;;;;11.30;99.90;;;;;;5075831;28;19944;-74
2022/10/11 05:33:27;;;;;;;;;;;11.30;99.90;;;;;;5075824;28;19912;-77
2022/10/11 05:35:53;;;;;;;;;;;11.30;99.90;;;;;;5075748;28;19913;-76
2022/10/11 05:38:19;;;;;;;;;;;11.40;99.90;;;;;;5075986;28;19920;-75
2022/10/11 05:40:44;;;;;;;;;;;11.40;99.90;;;;;;5075781;28;19909;-77
2022/10/11 05:43:10;;;;;;;;;;;11.40;99.90;;;;;;5075632;28;19909;-76
2022/10/11 05:45:37;;;;;;;;;;;11.30;99.90;;;;;;5075576;28;20376;-75
2022/10/11 05:48:02;;;;;;;;;;;11.20;99.90;;;;;;5074960;28;19912;-77
2022/10/11 05:50:28;;;;;;;;;;;11.20;99.90;;;;;;5075663;28;19913;-75
2022/10/11 05:52:54;;;;;;;;;;;11.10;99.90;;;;;;5076058;28;20373;-75
2022/10/11 05:55:20;;;;;;;;;;;11.10;99.90;;;;;;5075487;28;19909;-74
2022/10/11 05:57:45;;;;;;;;;;;11.10;99.90;;;;;;5075271;28;20357;-77
2022/10/11 06:00:11;;;;;;;;;;;11.20;99.90;;;;;;5075175;28;19908;-74
2022/10/11 06:02:36;;;;;;;;;;;11.20;99.90;;;;;;5075365;28;19916;-76
2022/10/11 06:05:02;;;;;;;;;;;10.90;99.90;;;;;;5075409;28;19909;-75
2022/10/11 06:07:28;;;;;;;;;;;10.90;99.90;;;;;;5075184;28;19916;-75
2022/10/11 06:09:53;;;;;;;;;;;11.00;99.90;;;;;;5075117;28;19912;-76
2022/10/11 06:12:20;;;;;;;;;;;10.90;99.90;;;;;;5075056;28;20407;-74
2022/10/11 06:14:46;;;;;;;;;;;10.90;99.90;;;;;;5074990;28;19908;-77
2022/10/11 06:17:11;;;;;;;;;;;11.00;99.90;;;;;;5074995;28;20058;-77
2022/10/11 06:19:37;;;;;;;;;;;11.00;99.90;;;;;;5074891;28;19916;-77
2022/10/11 06:22:02;;;;;;;;;;;11.00;99.90;;;;;;5074841;28;20389;-75
2022/10/11 06:24:28;;;;;;;;;;;10.90;99.90;;;;;;5075145;28;19986;-75
2022/10/11 06:26:54;;;;;;;;;;;10.90;99.90;;;;;;5074838;28;19913;-75
2022/10/11 06:29:20;;;;;;;;;;;10.90;99.90;;;;;;5074745;28;19994;-76
2022/10/11 06:31:46;;;;;;;;;;;11.10;99.90;;;;;;5074675;28;19915;-77
2022/10/11 06:34:12;;;;;;;;;;;11.30;99.90;;;;;;5074218;28;19915;-76
2022/10/11 06:36:37;;;;;;;;;;;11.00;99.90;;;;;;5074688;28;19908;-75
2022/10/11 06:39:03;;;;;;;;;;;10.80;99.90;;;;;;5074759;28;19916;-76
2022/10/11 06:41:29;;;;;;;;;;;10.80;99.90;;;;;;5074498;28;20368;-76
2022/10/11 06:43:55;;;;;;;;;;;10.90;99.90;;;;;;5074830;28;19915;-77
2022/10/11 06:46:22;;;;;;;;;;;10.90;99.90;;;;;;5074231;28;19908;-76
2022/10/11 06:48:48;;;;;;;;;;;10.90;99.90;;;;;;5074150;28;20395;-78
2022/10/11 06:51:14;;;;;;;;;;;10.90;99.90;;;;;;5073010;28;19916;-75
2022/10/11 06:53:40;;;;;;;;;;;11.10;99.90;;;;;;5074811;28;19908;-76
2022/10/11 06:56:08;;;;;;;;;;;11.20;99.90;;;;;;5074211;28;19909;-76
2022/10/11 06:58:34;;;;;;;;;;;11.20;99.90;;;;;;5074014;28;19916;-77
2022/10/11 07:01:04;;;;;;;;;;;11.30;99.90;;;;;;5074007;28;19915;-75
2022/10/11 07:03:30;;;;;;;;;;;11.40;99.90;;;;;;5074267;28;19982;-76
2022/10/11 07:06:02;;;;;;;;;;;11.50;99.90;;;;;;5073704;28;19908;-77
2022/10/11 07:08:28;;;;;;;;;;;11.60;99.90;;;;;;5074180;28;19909;-76
2022/10/11 07:11:01;;;;;;;;;;;12.40;99.90;;;;;;5074005;28;20281;-74
2022/10/11 07:13:27;;;;;;;;;;;12.70;99.90;;;;;;5074382;28;19908;-77
2022/10/11 07:15:52;;;;;;;;;;;13.30;99.90;;;;;;5073530;28;20007;-77
2022/10/11 07:18:18;;;;;;;;;;;13.90;99.90;;;;;;5074072;28;19913;-77
2022/10/11 07:20:43;;;;;;;;;;;14.00;99.90;;;;;;5074095;28;20460;-75
2022/10/11 07:23:09;;;;;;;;;;;13.70;99.90;;;;;;5073801;28;19908;-76
2022/10/11 07:25:35;;;;;;;;;;;13.50;99.90;;;;;;5073762;28;20375;-78
2022/10/11 07:28:00;;;;;;;;;;;13.40;99.90;;;;;;5073710;28;19915;-77
2022/10/11 07:30:26;;;;;;;;;;;13.50;99.90;;;;;;5073763;28;20387;-77
2022/10/11 07:32:51;;;;;;;;;;;13.60;99.90;;;;;;5073893;28;19999;-75
2022/10/11 07:35:17;;;;;;;;;;;14.00;99.90;;;;;;5073616;28;20005;-75
2022/10/11 07:37:43;;;;;;;;;;;14.60;99.90;;;;;;5073925;28;19913;-77
2022/10/11 07:40:11;;;;;;;;;;;15.40;99.90;;;;;;5073557;28;19913;-76
2022/10/11 07:42:37;;;;;;;;;;;16.00;99.90;;;;;;5073587;28;19963;-75
2022/10/11 07:45:03;;;;;;;;;;;16.40;99.90;;;;;;5073296;28;19990;-77
2022/10/11 07:47:28;;;;;;;;;;;16.70;99.90;;;;;;5073470;28;20365;-77
2022/10/11 07:49:54;;;;;;;;;;;17.40;99.90;;;;;;5073284;28;19925;-77
2022/10/11 07:52:23;;;;;;;;;;;17.60;99.90;;;;;;5074029;28;19999;-75
2022/10/11 07:54:48;;;;;;;;;;;17.70;99.90;;;;;;5073357;28;19909;-75
2022/10/11 07:57:14;;;;;;;;;;;17.50;99.90;;;;;;5073495;28;19916;-76
2022/10/11 07:59:40;;;;;;;;;;;17.10;99.90;;;;;;5073458;28;19908;-77
2022/10/11 08:02:13;;;;;;;;;;;16.70;99.90;;;;;;5073406;28;20369;-75
2022/10/11 08:04:38;;;;;;;;;;;16.60;99.90;;;;;;5073401;28;19908;-77
2022/10/11 08:07:04;;;;;;;;;;;16.80;99.90;;;;;;5073338;28;19916;-74
2022/10/11 08:09:30;;;;;;;;;;;18.00;99.90;;;;;;5073938;28;19909;-76
2022/10/11 08:11:56;;;;;;;;;;;18.70;99.90;;;;;;5073184;28;19951;-77
2022/10/11 08:14:21;;;;;;;;;;;20.40;99.90;;;;;;5073208;28;20396;-78
2022/10/11 08:16:47;;;;;;;;;;;21.80;96.80;;;;;;5073206;28;20058;-75
2022/10/11 08:19:13;;;;;;;;;;;21.80;93.50;;;;;;5073196;28;19909;-77
2022/10/11 08:21:38;;;;;;;;;;;20.80;92.50;;;;;;5073255;28;19915;-78
2022/10/11 08:24:04;;;;;;;;;;;20.00;92.40;;;;;;5073321;28;19938;-77
2022/10/11 08:26:30;;;;;;;;;;;19.70;91.90;;;;;;5071579;28;20297;-77
2022/10/11 08:28:57;;;;;;;;;;;20.40;90.20;;;;;;5073598;28;19954;-74
2022/10/11 08:31:22;;;;;;;;;;;20.60;87.50;;;;;;5073300;28;20327;-79
2022/10/11 08:33:48;;;;;;;;;;;21.60;85.70;;;;;;5073121;28;19909;-75
2022/10/11 08:36:14;;;;;;;;;;;21.60;84.20;;;;;;5071761;28;19919;-77
2022/10/11 08:38:40;;;;;;;;;;;21.10;84.90;;;;;;5073209;28;19913;-76
2022/10/11 08:41:26;;;;;;;;;;;21.30;82.20;;;;;;5073003;28;19947;-76
2022/10/11 08:44:00;;;;;;;;;;;21.00;82.90;;;;;;5073555;28;19914;-76
2022/10/11 08:46:29;;;;;;;;;;;23.10;80.50;;;;;;5072988;28;19912;-77
2022/10/11 08:48:55;;;;;;;;;;;23.50;74.90;;;;;;5072879;28;20399;-79
2022/10/11 08:51:26;;;;;;;;;;;24.00;73.00;;;;;;5072989;28;20322;-77
2022/10/11 08:54:13;;;;;;;;;;;24.90;70.00;;;;;;5071734;28;20014;-78
2022/10/11 08:56:40;;;;;;;;;;;24.50;68.10;;;;;;5073079;28;19908;-78
2022/10/11 08:59:11;;;;;;;;;;;24.60;67.60;;;;;;5076289;28;19916;-76
2022/10/11 09:01:42;;;;;;;;;;;25.20;67.50;;;;;;5076660;28;20421;-77
2022/10/11 09:04:12;;;;;;;;;;;25.80;64.80;;;;;;5076757;28;19957;-78
2022/10/11 09:07:04;;;;;;;;;;;26.20;62.90;;;;;;5076670;28;19915;-78
2022/10/11 09:09:54;;;;;;;;;;;26.20;61.80;;;;;;5072273;28;20433;-77
2022/10/11 09:12:38;;;;;;;;;;;26.30;60.60;;;;;;5076290;28;20387;-76
2022/10/11 09:15:16;;;;;;;;;;;26.90;59.70;;;;;;5076366;28;19991;-76
2022/10/11 09:17:44;;;;;;;;;;;27.60;58.40;;;;;;5035609;28;20018;-76
2022/10/11 09:20:16;;;;;;;;;;;27.70;57.30;;;;;;5056023;28;19916;-74
2022/10/11 09:22:50;;;;;;;;;;;27.60;57.00;;;;;;5056636;28;19932;-75
2022/10/11 09:25:25;;;;;;;;;;;27.80;56.40;;;;;;5056374;28;19916;-74
2022/10/11 09:28:09;;;;;;;;;;;28.20;55.40;;;;;;5054792;28;20310;-76
2022/10/11 09:30:37;;;;;;;;;;;28.50;54.30;;;;;;5055964;28;20399;-75
2022/10/11 09:33:09;;;;;;;;;;;28.80;54.30;;;;;;5055832;28;20316;-77
2022/10/11 09:35:37;;;;;;;;;;;29.50;53.10;;;;;;5056004;28;19916;-76
2022/10/11 09:38:05;;;;;;;;;;;29.20;52.70;;;;;;5068471;28;19912;-74
2022/10/11 09:40:31;;;;;;;;;;;29.20;53.20;;;;;;5076076;28;19909;-74
2022/10/11 09:42:58;;;;;;;;;;;29.20;52.30;;;;;;5076132;28;19961;-75
2022/10/11 09:45:23;;;;;;;;;;;29.30;51.60;;;;;;5075765;28;19908;-75
2022/10/11 09:47:50;;;;;;;;;;;29.90;52.10;;;;;;5064699;28;19909;-75
2022/10/11 09:50:24;;;;;;;;;;;29.90;51.50;;;;;;5053010;28;20295;-74
2022/10/11 09:52:50;;;;;;;;;;;31.10;50.90;;;;;;5053137;28;19920;-77
2022/10/11 09:55:29;;;;;;;;;;;30.10;50.10;;;;;;5055892;28;19912;-75
2022/10/11 09:57:54;;;;;;;;;;;30.60;49.70;;;;;;5055064;28;19917;-77
2022/10/11 10:00:21;;;;;;;;;;;31.00;49.10;;;;;;5055711;28;19958;-75
2022/10/11 10:02:48;;;;;;;;;;;30.50;48.70;;;;;;5055718;28;19909;-74
2022/10/11 10:05:14;;;;;;;;;;;32.10;48.50;;;;;;5055646;28;20273;-77
2022/10/11 10:07:55;;;;;;;;;;;31.40;47.50;;;;;;5055196;28;19908;-76
2022/10/11 10:10:33;;;;;;;;;;;31.40;47.90;;;;;;5055140;28;19908;-77
2022/10/11 10:13:01;;;;;;;;;;;31.30;47.60;;;;;;5054858;28;19908;-76
2022/10/11 10:15:30;;;;;;;;;;;31.40;47.70;;;;;;5055070;28;20385;-78
2022/10/11 10:17:56;;;;;;;;;;;31.30;47.60;;;;;;5053426;28;20381;-76
2022/10/11 10:20:26;;;;;;;;;;;31.50;47.20;;;;;;5054778;28;19936;-76
2022/10/11 10:22:52;;;;;;;;;;;32.10;46.70;;;;;;5055132;28;19916;-76
2022/10/11 10:25:22;;;;;;;;;;;31.40;47.20;;;;;;5055811;28;19909;-75
2022/10/11 10:28:01;;;;;;;;;;;31.70;46.90;;;;;;5053932;28;20277;-74
2022/10/11 10:30:27;;;;;;;;;;;33.70;47.30;;;;;;5055068;28;19915;-75
2022/10/11 10:33:02;;;;;;;;;;;35.20;46.00;;;;;;5054653;28;19909;-74
2022/10/11 10:35:43;;;;;;;;;;;35.20;45.20;;;;;;5054669;28;19992;-76
2022/10/11 10:38:11;;;;;;;;;;;34.60;45.80;;;;;;5054428;28;19939;-74
2022/10/11 10:40:43;;;;;;;;;;;35.10;45.80;;;;;;5054763;28;19992;-76
2022/10/11 10:43:15;;;;;;;;;;;34.80;45.00;;;;;;5054643;28;19939;-75
2022/10/11 10:45:53;;;;;;;;;;;36.20;44.70;;;;;;5054665;28;19955;-76
2022/10/11 10:48:29;;;;;;;;;;;36.30;43.90;;;;;;5069155;28;19999;-75
2022/10/11 10:50:57;;;;;;;;;;;36.40;43.40;;;;;;5067054;28;19916;-76
2022/10/11 10:53:30;;;;;;;;;;;35.80;43.20;;;;;;5070076;28;19962;-76
2022/10/11 10:56:13;;;;;;;;;;;36.10;43.20;;;;;;5073489;28;19908;-77
2022/10/11 10:59:05;;;;;;;;;;;36.30;42.90;;;;;;5072991;28;19955;-75
2022/10/11 11:01:32;;;;;;;;;;;37.90;42.10;;;;;;5066817;28;19919;-77
2022/10/11 11:03:58;;;;;;;;;;;39.60;41.40;;;;;;5067468;28;19959;-75
2022/10/11 11:06:36;;;;;;;;;;;38.70;39.80;;;;;;5067558;28;19916;-75
2022/10/11 11:09:05;;;;;;;;;;;38.00;40.70;;;;;;5064080;28;20362;-78
2022/10/11 11:11:45;;;;;;;;;;;37.60;40.70;;;;;;5068065;28;20372;-77
2022/10/11 11:14:20;;;;;;;;;;;37.40;40.70;;;;;;5070763;28;19934;-77
2022/10/11 11:16:49;;;;;;;;;;;37.40;40.70;;;;;;5069675;28;20369;-78
2022/10/11 11:19:33;;;;;;;;;;;38.20;40.20;;;;;;5063492;28;19916;-76
2022/10/11 11:22:21;;;;;;;;;;;39.00;39.90;;;;;;5068889;28;19909;-77
2022/10/11 11:25:19;;;;;;;;;;;39.90;39.30;;;;;;5069361;28;20323;-76
2022/10/11 11:27:53;;;;;;;;;;;38.40;39.20;;;;;;5037835;28;19920;-78
2022/10/11 11:30:22;;;;;;;;;;;38.30;40.10;;;;;;5073052;28;20392;-77
2022/10/11 11:32:56;;;;;;;;;;;39.00;39.30;;;;;;5072875;28;19912;-78
2022/10/11 11:35:35;;;;;;;;;;;38.20;39.60;;;;;;5073759;28;19912;-76
2022/10/11 11:38:21;;;;;;;;;;;40.10;39.90;;;;;;5073281;28;19909;-79
2022/10/11 11:40:58;;;;;;;;;;;42.10;37.40;;;;;;5073177;28;19908;-76
2022/10/11 11:43:32;;;;;;;;;;;43.30;36.50;;;;;;5073666;28;19912;-78
2022/10/11 11:46:00;;;;;;;;;;;42.80;36.40;;;;;;5073919;28;19916;-76
2022/10/11 11:48:26;;;;;;;;;;;42.60;36.20;;;;;;5072906;28;19921;-78
2022/10/11 11:50:55;;;;;;;;;;;42.20;35.80;;;;;;5073755;28;19915;-79
2022/10/11 11:53:34;;;;;;;;;;;42.40;35.60;;;;;;5073496;28;19955;-76
2022/10/11 11:56:03;;;;;;;;;;;41.70;35.70;;;;;;5073452;28;19909;-75
2022/10/11 11:58:32;;;;;;;;;;;42.10;35.80;;;;;;5073360;28;19917;-78
2022/10/11 12:01:03;;;;;;;;;;;43.50;36.20;;;;;;5073691;28;19919;-78
2022/10/11 12:03:31;;;;;;;;;;;46.30;35.10;;;;;;5073687;28;19909;-78
2022/10/11 12:06:12;;;;;;;;;;;47.40;33.80;;;;;;5073721;28;19999;-79
2022/10/11 12:08:39;;;;;;;;;;;45.90;33.80;;;;;;5072942;28;20258;-77
2022/10/11 12:11:05;;;;;;;;;;;45.10;34.00;;;;;;5073556;28;20262;-79
2022/10/11 12:13:35;;;;;;;;;;;43.30;34.00;;;;;;5073717;28;19947;-78
2022/10/11 12:16:11;;;;;;;;;;;41.80;34.70;;;;;;5073592;28;19958;-76
2022/10/11 12:18:55;;;;;;;;;;;41.40;34.90;;;;;;5072941;28;19908;-78
2022/10/11 12:21:29;;;;;;;;;;;40.30;35.30;;;;;;5073404;28;19915;-79
2022/10/11 12:23:56;;;;;;;;;;;41.10;34.30;;;;;;5073376;28;19981;-78
2022/10/11 12:26:27;;;;;;;;;;;41.70;34.00;;;;;;5073633;28;19931;-76
2022/10/11 12:29:12;;;;;;;;;;;40.70;34.30;;;;;;5073272;28;19912;-77
2022/10/11 12:31:37;;;;;;;;;;;38.90;34.80;;;;;;5073270;28;19909;-78
2022/10/11 12:34:09;;;;;;;;;;;39.00;35.10;;;;;;5077185;28;19931;-78
2022/10/11 12:36:42;;;;;;;;;;;38.80;35.50;;;;;;5077075;28;19962;-76
2022/10/11 12:39:20;;;;;;;;;;;38.50;35.50;;;;;;5076130;28;20318;-77
2022/10/11 12:41:48;;;;;;;;;;;39.50;35.60;;;;;;5077331;28;19908;-78
2022/10/11 12:44:17;;;;;;;;;;;42.00;34.40;;;;;;5076752;28;19912;-75
2022/10/11 12:46:58;;;;;;;;;;;40.30;34.10;;;;;;5076961;28;19915;-76
2022/10/11 12:49:32;;;;;;;;;;;39.60;34.90;;;;;;5076607;28;19960;-76
2022/10/11 12:52:16;;;;;;;;;;;38.80;35.80;;;;;;5077141;28;19909;-78
2022/10/11 12:55:01;;;;;;;;;;;40.20;35.30;;;;;;5076505;28;20374;-78
2022/10/11 12:57:41;;;;;;;;;;;39.50;35.20;;;;;;5075927;28;20311;-78
2022/10/11 13:00:29;;;;;;;;;;;38.80;36.10;;;;;;5076124;28;19909;-77
2022/10/11 13:03:03;;;;;;;;;;;40.10;35.50;;;;;;5076428;28;19947;-77
2022/10/11 13:05:43;;;;;;;;;;;42.60;34.80;;;;;;5075451;28;19915;-78
2022/10/11 13:08:12;;;;;;;;;;;43.70;34.60;;;;;;5075878;28;20334;-75
2022/10/11 13:10:41;;;;;;;;;;;44.20;34.70;;;;;;5075999;28;19912;-75
2022/10/11 13:13:14;;;;;;;;;;;45.30;34.90;;;;;;5076010;28;20385;-75
2022/10/11 13:15:42;;;;;;;;;;;46.80;34.20;;;;;;5076339;28;19908;-76
2022/10/11 13:18:12;;;;;;;;;;;45.20;34.20;;;;;;5076077;28;19936;-76
2022/10/11 13:20:38;;;;;;;;;;;46.00;33.70;;;;;;5076282;28;19909;-76
2022/10/11 13:23:03;;;;;;;;;;;47.60;34.40;;;;;;5076393;28;19954;-77
2022/10/11 13:25:35;;;;;;;;;;;48.10;33.50;;;;;;5076909;28;20339;-79
2022/10/11 13:28:00;;;;;;;;;;;48.80;33.20;;;;;;5075634;28;19912;-78
2022/10/11 13:30:30;;;;;;;;;;;48.40;33.50;;;;;;5076211;28;20254;-78
2022/10/11 13:32:57;;;;;;;;;;;48.90;32.80;;;;;;5075936;28;19916;-78
2022/10/11 13:35:29;;;;;;;;;;;45.80;32.60;;;;;;5076144;28;19912;-75
2022/10/11 13:37:55;;;;;;;;;;;44.10;33.80;;;;;;5075601;28;19913;-77
2022/10/11 13:40:22;;;;;;;;;;;44.20;33.60;;;;;;5076033;28;19915;-78
2022/10/11 13:42:49;;;;;;;;;;;43.10;34.30;;;;;;5075304;28;19908;-76
2022/10/11 13:45:16;;;;;;;;;;;43.80;34.50;;;;;;5075624;28;19965;-77
2022/10/11 13:47:42;;;;;;;;;;;43.40;34.60;;;;;;5066145;28;19920;-78
2022/10/11 13:50:30;;;;;;;;;;;46.10;34.30;;;;;;5055466;28;19921;-77
2022/10/11 13:52:58;;;;;;;;;;;44.90;33.50;;;;;;5055756;28;20373;-78
2022/10/11 13:55:26;;;;;;;;;;;45.30;33.20;;;;;;5055918;28;20409;-77
2022/10/11 13:57:52;;;;;;;;;;;43.60;33.50;;;;;;5055491;28;19915;-75
2022/10/11 14:00:22;;;;;;;;;;;44.90;33.50;;;;;;5055553;28;19909;-76
2022/10/11 14:03:05;;;;;;;;;;;43.30;34.00;;;;;;5055613;28;19959;-75
2022/10/11 14:05:36;;;;;;;;;;;44.70;34.30;;;;;;5055307;28;20370;-79
2022/10/11 14:08:06;;;;;;;;;;;45.70;33.40;;;;;;5055035;28;19920;-77
2022/10/11 14:10:31;;;;;;;;;;;44.90;33.40;;;;;;5055310;28;19915;-76
2022/10/11 14:12:59;;;;;;;;;;;42.40;34.30;;;;;;5054932;28;19908;-77
2022/10/11 14:15:27;;;;;;;;;;;41.30;35.20;;;;;;5055602;28;19912;-78
2022/10/11 14:17:53;;;;;;;;;;;42.20;35.50;;;;;;5054933;28;19916;-77
2022/10/11 14:20:18;;;;;;;;;;;43.60;34.60;;;;;;5055081;28;19909;-77
2022/10/11 14:22:44;;;;;;;;;;;44.50;34.10;;;;;;5055354;28;20003;-75
2022/10/11 14:25:13;;;;;;;;;;;44.40;34.30;;;;;;5055356;28;19913;-76
2022/10/11 14:27:39;;;;;;;;;;;42.70;33.90;;;;;;5053531;28;20331;-75